createdAt,value
2022-07-25T00:00:45.008Z,100575.89
2022-07-25T00:07:09.421Z,100576.16
2022-07-25T00:13:33.812Z,100575.01
2022-07-25T00:19:58.195Z,100572.86
2022-07-25T00:26:22.648Z,100568.50
2022-07-25T00:32:47.166Z,100561.72
2022-07-25T00:39:11.600Z,100562.16
2022-07-25T00:45:35.995Z,100566.14
2022-07-25T00:52:00.323Z,100563.99
2022-07-25T00:58:24.700Z,100560.59
2022-07-25T01:04:49.028Z,100544.65
2022-07-25T01:11:13.316Z,100542.83
2022-07-25T01:17:37.748Z,100537.52
2022-07-25T01:23:55.088Z,100543.77
2022-07-25T01:30:19.488Z,100535.16
2022-07-25T01:36:43.808Z,100542.42
2022-07-25T01:43:08.270Z,100537.48
2022-07-25T01:49:32.648Z,100541.95
2022-07-25T01:55:57.477Z,100540.71
2022-07-25T02:02:21.977Z,100535.54
2022-07-25T02:08:46.422Z,100540.58
2022-07-25T02:15:10.911Z,100536.70
2022-07-25T02:21:35.747Z,100539.94
2022-07-25T02:28:00.152Z,100538.39
2022-07-25T02:34:24.462Z,100535.66
2022-07-25T02:40:49.103Z,100537.98
2022-07-25T02:47:13.511Z,100535.05
2022-07-25T02:53:56.591Z,100537.71
2022-07-25T03:00:21.505Z,100537.00
2022-07-25T03:06:38.833Z,100540.55
2022-07-25T03:13:03.156Z,100538.70
2022-07-25T03:19:27.977Z,100551.99
2022-07-25T03:25:52.275Z,100549.61
2022-07-25T03:32:16.831Z,100546.38
2022-07-25T03:38:41.205Z,100541.91
2022-07-25T03:45:05.582Z,100541.85
2022-07-25T03:51:30.254Z,100539.57
2022-07-25T03:57:54.766Z,100538.91
2022-07-25T04:04:20.122Z,100538.80
2022-07-25T04:10:47.038Z,100536.14
2022-07-25T04:17:11.644Z,100537.52
2022-07-25T04:23:36.206Z,100536.16
2022-07-25T04:30:00.960Z,100535.16
2022-07-25T04:36:25.439Z,100529.59
2022-07-25T04:42:49.827Z,100533.20
2022-07-25T04:49:14.310Z,100532.80
2022-07-25T04:55:38.775Z,100538.48
2022-07-25T05:02:03.779Z,100537.15
2022-07-25T05:08:28.664Z,100540.10
2022-07-25T05:14:53.337Z,100535.31
2022-07-25T05:21:17.753Z,100531.48
2022-07-25T05:27:42.084Z,100529.63
2022-07-25T05:34:06.780Z,100528.77
2022-07-25T05:40:31.753Z,100520.15
2022-07-25T05:46:56.193Z,100515.47
2022-07-25T05:53:20.768Z,100512.63
2022-07-25T05:59:45.182Z,100504.05
2022-07-25T06:06:08.465Z,100505.67
2022-07-25T06:12:32.857Z,100500.99
2022-07-25T06:18:57.516Z,100494.92
2022-07-25T06:25:21.930Z,100493.23
2022-07-25T06:31:47.269Z,100491.17
2022-07-25T06:38:11.903Z,100489.66
2022-07-25T06:44:36.231Z,100482.96
2022-07-25T06:51:00.499Z,100476.56
2022-07-25T06:57:24.810Z,100467.87
2022-07-25T07:03:49.255Z,100460.40
2022-07-25T07:10:13.719Z,100453.04
2022-07-25T07:16:38.246Z,100447.90
2022-07-25T07:23:02.880Z,100455.06
2022-07-25T07:29:27.281Z,100452.45
2022-07-25T07:35:51.691Z,100445.55
2022-07-25T07:42:16.123Z,100454.02
2022-07-25T07:48:40.489Z,100448.40
2022-07-25T07:55:03.525Z,100445.27
2022-07-25T08:01:28.093Z,100439.33
2022-07-25T08:07:52.658Z,100436.92
2022-07-25T08:14:19.823Z,100428.66
2022-07-25T08:20:44.456Z,100430.48
2022-07-25T08:27:08.838Z,100425.04
2022-07-25T08:33:33.273Z,100416.60
2022-07-25T08:39:57.678Z,100416.77
2022-07-25T08:46:22.157Z,100414.52
2022-07-25T08:52:46.614Z,100407.48
2022-07-25T08:59:11.051Z,100399.35
2022-07-25T09:05:36.907Z,100391.91
2022-07-25T09:12:07.290Z,100387.94
2022-07-25T09:18:31.649Z,100385.93
2022-07-25T09:24:56.608Z,100380.58
2022-07-25T09:31:21.473Z,100386.51
2022-07-25T09:37:54.873Z,100386.91
2022-07-25T09:44:19.212Z,100375.89
2022-07-25T09:50:43.613Z,100371.39
2022-07-25T09:57:08.144Z,100367.39
2022-07-25T10:03:41.519Z,100362.34
2022-07-25T10:10:06.015Z,100351.77
2022-07-25T10:16:30.487Z,100344.63
2022-07-25T10:22:58.265Z,100336.71
2022-07-25T10:29:23.015Z,100338.67
2022-07-25T10:35:53.693Z,100331.88
2022-07-25T10:42:23.539Z,100330.08
2022-07-25T10:48:44.142Z,100321.79
2022-07-25T10:55:14.747Z,100312.72
2022-07-25T11:01:39.144Z,100302.92
2022-07-25T11:08:21.765Z,100293.77
2022-07-25T11:14:47.414Z,100291.36
2022-07-25T11:21:11.621Z,100279.76
2022-07-25T11:27:36.047Z,100276.71
2022-07-25T11:34:00.374Z,100269.80
2022-07-25T11:40:24.769Z,100269.50
2022-07-25T11:46:49.163Z,100266.59
2022-07-25T11:53:25.651Z,100259.71
2022-07-25T12:00:02.178Z,100257.02
2022-07-25T12:06:26.993Z,100251.73
2022-07-25T12:12:51.416Z,100242.27
2022-07-25T12:19:15.809Z,100232.43
2022-07-25T12:25:40.130Z,100225.48
2022-07-25T12:32:04.556Z,100218.86
2022-07-25T12:38:28.939Z,100215.30
2022-07-25T12:44:53.281Z,100214.45
2022-07-25T12:51:17.717Z,100206.40
2022-07-25T12:57:41.988Z,100202.50
2022-07-25T13:04:06.310Z,100193.83
2022-07-25T13:10:30.681Z,100184.66
2022-07-25T13:16:55.115Z,100178.15
2022-07-25T13:23:20.882Z,100170.39
2022-07-25T13:29:45.336Z,100163.70
2022-07-25T13:36:09.817Z,100153.83
2022-07-25T13:42:34.257Z,100147.08
2022-07-25T13:48:58.646Z,100143.52
2022-07-25T13:55:15.824Z,100131.58
2022-07-25T14:01:20.161Z,100128.09
2022-07-25T14:07:44.632Z,100118.65
2022-07-25T14:14:09.068Z,100118.70
2022-07-25T14:20:33.495Z,100115.38
2022-07-25T14:26:57.880Z,100117.17
2022-07-25T14:33:22.305Z,100111.27
2022-07-25T14:39:47.128Z,100093.21
2022-07-25T14:46:11.531Z,100089.73
2022-07-25T14:52:35.827Z,100079.62
2022-07-25T14:59:00.138Z,100073.42
2022-07-25T15:05:17.329Z,100065.23
2022-07-25T15:11:41.694Z,100054.23
2022-07-25T15:18:09.425Z,100048.66
2022-07-25T15:24:57.653Z,100042.80
2022-07-25T15:31:21.128Z,100034.37
2022-07-25T15:37:45.587Z,100028.39
2022-07-25T15:44:09.931Z,100024.27
2022-07-25T15:50:34.326Z,100017.77
2022-07-25T15:56:58.633Z,100014.39
2022-07-25T16:03:23.158Z,100011.11
2022-07-25T16:09:47.732Z,100005.54
2022-07-25T16:16:12.402Z,99999.39
2022-07-25T16:22:36.723Z,99996.64
2022-07-25T16:29:01.157Z,99986.07
2022-07-25T16:35:25.909Z,99983.79
2022-07-25T16:41:50.240Z,99984.55
2022-07-25T16:48:14.675Z,99981.31
2022-07-25T16:54:39.078Z,99978.02
2022-07-25T17:01:03.745Z,99976.83
2022-07-25T17:07:28.123Z,99973.70
2022-07-25T17:13:52.573Z,99963.52
2022-07-25T17:20:17.046Z,99955.06
2022-07-25T17:26:41.454Z,99950.30
2022-07-25T17:33:05.914Z,99945.05
2022-07-25T17:39:30.264Z,99933.10
2022-07-25T17:45:54.708Z,99924.52
2022-07-25T17:52:19.008Z,99919.36
2022-07-25T17:58:43.445Z,99905.14
2022-07-25T18:05:07.839Z,99906.91
2022-07-25T18:11:32.277Z,99902.62
2022-07-25T18:17:56.644Z,99902.31
2022-07-25T18:24:22.249Z,99902.40
2022-07-25T18:30:49.392Z,99895.86
2022-07-25T18:37:14.234Z,99896.95
2022-07-25T18:43:38.608Z,99895.44
2022-07-25T18:50:03.552Z,99898.31
2022-07-25T18:56:27.960Z,99898.11
2022-07-25T19:02:52.362Z,99899.09
2022-07-25T19:09:16.899Z,99892.08
2022-07-25T19:15:41.252Z,99887.27
2022-07-25T19:22:05.900Z,99879.58
2022-07-25T19:28:30.436Z,99872.23
2022-07-25T19:34:54.551Z,99864.45
2022-07-25T19:41:19.065Z,99864.83
2022-07-25T19:47:43.580Z,99859.45
2022-07-25T19:54:08.380Z,99858.27
2022-07-25T20:00:33.021Z,99858.94
2022-07-25T20:06:57.454Z,99864.02
2022-07-25T20:13:22.605Z,99866.13
2022-07-25T20:19:46.912Z,99861.27
2022-07-25T20:26:11.596Z,99859.17
2022-07-25T20:32:36.333Z,99851.66
2022-07-25T20:39:00.730Z,99855.81
2022-07-25T20:45:25.367Z,99854.84
